createdAt,value
2023-10-01T00:02:16.027Z,101092.15
2023-10-01T00:04:33.844Z,101090.76
2023-10-01T00:06:48.425Z,101092.61
2023-10-01T00:09:11.881Z,101092.11
2023-10-01T00:11:27.861Z,101091.67
2023-10-01T00:13:43.907Z,101097.80
2023-10-01T00:16:06.637Z,101101.60
2023-10-01T00:18:32.097Z,101102.14
2023-10-01T00:20:54.727Z,101101.54
2023-10-01T00:23:22.844Z,101102.38
2023-10-01T00:25:37.617Z,101105.94
2023-10-01T00:27:53.499Z,101107.66
2023-10-01T00:30:06.761Z,101106.68
2023-10-01T00:32:24.036Z,101103.98
2023-10-01T00:34:40.122Z,101101.08
2023-10-01T00:36:53.351Z,101103.11
2023-10-01T00:39:19.856Z,101107.53
2023-10-01T00:41:38.821Z,101108.77
2023-10-01T00:43:54.645Z,101105.38
2023-10-01T00:46:27.653Z,101106.56
2023-10-01T00:48:40.706Z,101112.42
2023-10-01T00:51:02.193Z,101110.71
2023-10-01T00:53:15.361Z,101112.20
2023-10-01T00:55:39.641Z,101114.42
2023-10-01T00:57:52.979Z,101114.23
2023-10-01T01:00:28.127Z,101113.75
2023-10-01T01:02:48.633Z,101116.38
2023-10-01T01:05:22.298Z,101114.83
2023-10-01T01:07:38.842Z,101114.05
2023-10-01T01:09:55.191Z,101113.58
2023-10-01T01:12:19.550Z,101120.01
2023-10-01T01:14:35.894Z,101120.61
2023-10-01T01:16:54.245Z,101120.32
2023-10-01T01:19:06.852Z,101118.93
2023-10-01T01:21:44.301Z,101118.27
2023-10-01T01:24:19.139Z,101114.26
2023-10-01T01:26:54.082Z,101115.80
2023-10-01T01:29:19.575Z,101117.04
2023-10-01T01:31:47.270Z,101119.38
2023-10-01T01:34:01.544Z,101119.02
2023-10-01T01:36:15.196Z,101124.27
2023-10-01T01:38:28.108Z,101125.91
2023-10-01T01:40:42.585Z,101125.56
2023-10-01T01:42:58.317Z,101130.91
2023-10-01T01:45:21.632Z,101134.90
2023-10-01T01:47:37.486Z,101138.81
2023-10-01T01:50:00.973Z,101145.83
2023-10-01T01:52:13.499Z,101147.52
2023-10-01T01:54:33.365Z,101145.30
2023-10-01T01:56:48.191Z,101155.31
2023-10-01T01:59:15.143Z,101153.27
2023-10-01T02:01:37.906Z,101158.46
2023-10-01T02:03:55.620Z,101160.23
2023-10-01T02:06:11.429Z,101163.81
2023-10-01T02:08:37.311Z,101166.03
2023-10-01T02:10:52.684Z,101167.58
2023-10-01T02:13:09.584Z,101169.38
2023-10-01T02:15:22.456Z,101172.55
2023-10-01T02:17:37.189Z,101168.56
2023-10-01T02:19:53.613Z,101168.00
2023-10-01T02:22:07.954Z,101167.00
2023-10-01T02:24:32.866Z,101169.19
2023-10-01T02:26:49.451Z,101166.92
2023-10-01T02:29:05.370Z,101168.52
2023-10-01T02:31:28.337Z,101167.30
2023-10-01T02:33:59.033Z,101171.15
2023-10-01T02:36:15.019Z,101168.52
2023-10-01T02:38:47.835Z,101167.52
2023-10-01T02:41:02.827Z,101168.43
2023-10-01T02:43:18.644Z,101169.65
2023-10-01T02:45:43.643Z,101167.45
2023-10-01T02:48:15.403Z,101173.59
2023-10-01T02:50:31.969Z,101181.24
2023-10-01T02:52:57.523Z,101180.55
2023-10-01T02:55:21.519Z,101184.54
2023-10-01T02:57:35.766Z,101186.06
2023-10-01T03:00:04.534Z,101191.02
2023-10-01T03:02:27.246Z,101195.30
2023-10-01T03:04:40.223Z,101196.86
2023-10-01T03:07:16.834Z,101205.20
2023-10-01T03:09:37.801Z,101204.52
2023-10-01T03:11:49.249Z,101211.25
2023-10-01T03:14:21.910Z,101211.58
2023-10-01T03:16:47.458Z,101212.30
2023-10-01T03:19:20.116Z,101213.73
2023-10-01T03:22:01.406Z,101216.67
2023-10-01T03:24:35.396Z,101216.05
2023-10-01T03:26:51.590Z,101217.08
2023-10-01T03:29:24.135Z,101220.57
2023-10-01T03:31:58.201Z,101222.70
2023-10-01T03:34:32.511Z,101225.70
2023-10-01T03:37:05.664Z,101224.60
2023-10-01T03:39:27.737Z,101225.30
2023-10-01T03:41:57.250Z,101222.94
2023-10-01T03:44:13.937Z,101229.42
2023-10-01T03:46:44.934Z,101229.05
2023-10-01T03:49:05.929Z,101235.21
2023-10-01T03:51:18.922Z,101234.98
2023-10-01T03:53:41.601Z,101239.78
2023-10-01T03:55:57.234Z,101243.74
2023-10-01T03:58:20.566Z,101243.40
2023-10-01T04:00:43.196Z,101245.06
2023-10-01T04:02:56.020Z,101244.58
2023-10-01T04:05:32.982Z,101244.15
2023-10-01T04:07:46.362Z,101242.96
2023-10-01T04:10:03.955Z,101241.36
2023-10-01T04:12:22.908Z,101244.90
2023-10-01T04:14:35.502Z,101241.48
2023-10-01T04:16:49.072Z,101246.13
2023-10-01T04:19:02.235Z,101245.81
2023-10-01T04:21:27.317Z,101239.92
2023-10-01T04:23:51.290Z,101240.94
2023-10-01T04:26:08.446Z,101247.56
2023-10-01T04:28:25.322Z,101246.44
2023-10-01T04:30:41.525Z,101242.86
2023-10-01T04:32:57.294Z,101248.86
2023-10-01T04:35:20.325Z,101251.44
2023-10-01T04:37:43.433Z,101249.52
2023-10-01T04:39:59.863Z,101247.84
2023-10-01T04:42:13.101Z,101246.44
2023-10-01T04:44:30.120Z,101245.02
2023-10-01T04:46:48.205Z,101245.05
2023-10-01T04:49:36.610Z,101243.83
2023-10-01T04:51:54.599Z,101246.54
2023-10-01T04:54:09.269Z,101248.95
2023-10-01T04:56:25.190Z,101251.84
2023-10-01T04:58:43.340Z,101254.63
2023-10-01T05:01:00.560Z,101258.70
2023-10-01T05:03:16.774Z,101260.42
2023-10-01T05:05:29.590Z,101262.29
2023-10-01T05:07:53.384Z,101259.88
2023-10-01T05:10:11.722Z,101265.13
2023-10-01T05:12:33.673Z,101268.41
2023-10-01T05:15:01.898Z,101266.52
2023-10-01T05:17:18.544Z,101270.89
2023-10-01T05:19:43.934Z,101273.55
2023-10-01T05:22:05.830Z,101273.35
2023-10-01T05:24:36.529Z,101268.13
2023-10-01T05:27:11.667Z,101270.35
2023-10-01T05:29:27.654Z,101267.33
2023-10-01T05:32:01.511Z,101271.68
2023-10-01T05:34:17.662Z,101270.70
2023-10-01T05:36:31.821Z,101269.89
2023-10-01T05:38:56.136Z,101274.52
2023-10-01T05:41:11.800Z,101278.13
2023-10-01T05:43:29.736Z,101279.24
2023-10-01T05:45:43.520Z,101279.95
2023-10-01T05:48:12.858Z,101281.95
2023-10-01T05:50:31.228Z,101290.31
2023-10-01T05:52:47.017Z,101292.45
2023-10-01T05:55:21.869Z,101292.85
2023-10-01T05:57:38.077Z,101292.92
2023-10-01T06:00:02.314Z,101299.86
2023-10-01T06:02:49.530Z,101304.21
2023-10-01T06:05:22.578Z,101307.76
2023-10-01T06:07:35.571Z,101314.38
2023-10-01T06:09:59.907Z,101309.25
2023-10-01T06:12:13.810Z,101310.80
2023-10-01T06:14:43.375Z,101312.08
2023-10-01T06:17:02.549Z,101305.00
2023-10-01T06:19:36.418Z,101305.23
2023-10-01T06:21:52.490Z,101302.63
2023-10-01T06:24:09.389Z,101306.05
2023-10-01T06:26:31.575Z,101310.23
2023-10-01T06:28:44.427Z,101300.04
2023-10-01T06:31:18.526Z,101295.13
2023-10-01T06:33:38.175Z,101292.36
2023-10-01T06:36:23.387Z,101296.66
2023-10-01T06:38:36.115Z,101303.08
2023-10-01T06:40:59.137Z,101306.45
2023-10-01T06:43:12.033Z,101304.05
2023-10-01T06:45:46.366Z,101312.64
2023-10-01T06:48:11.215Z,101320.24
2023-10-01T06:50:26.895Z,101324.60
2023-10-01T06:52:44.566Z,101320.72
2023-10-01T06:55:00.040Z,101323.63
2023-10-01T06:57:19.288Z,101321.19
2023-10-01T06:59:38.417Z,101320.85
2023-10-01T07:01:52.354Z,101323.43
2023-10-01T07:04:05.636Z,101328.72
2023-10-01T07:06:38.352Z,101331.58
2023-10-01T07:09:06.435Z,101335.86
2023-10-01T07:11:39.302Z,101341.23
2023-10-01T07:13:54.570Z,101341.98
2023-10-01T07:16:21.132Z,101343.44
2023-10-01T07:18:33.793Z,101350.38
2023-10-01T07:21:06.301Z,101350.19
2023-10-01T07:23:23.764Z,101357.56
2023-10-01T07:25:49.519Z,101359.27
2023-10-01T07:28:05.791Z,101360.34
2023-10-01T07:30:41.384Z,101364.56
2023-10-01T07:32:58.607Z,101364.48
2023-10-01T07:35:16.904Z,101365.14
2023-10-01T07:37:33.824Z,101364.65
2023-10-01T07:40:11.291Z,101369.16
2023-10-01T07:42:25.125Z,101369.63
2023-10-01T07:44:58.708Z,101371.83
2023-10-01T07:47:30.413Z,101366.02
2023-10-01T07:49:51.007Z,101365.21
2023-10-01T07:52:14.683Z,101362.98
2023-10-01T07:54:30.967Z,101357.69
2023-10-01T07:56:52.155Z,101356.17
2023-10-01T07:59:18.331Z,101363.08
2023-10-01T08:02:09.931Z,101362.53
2023-10-01T08:04:38.577Z,101362.75
2023-10-01T08:06:51.961Z,101364.45
2023-10-01T08:09:24.437Z,101365.30
2023-10-01T08:12:11.509Z,101369.00
2023-10-01T08:14:24.513Z,101369.34
2023-10-01T08:16:50.135Z,101375.35
2023-10-01T08:19:07.824Z,101374.95
2023-10-01T08:21:33.427Z,101378.42
2023-10-01T08:24:01.015Z,101378.70
2023-10-01T08:26:26.474Z,101377.10
2023-10-01T08:28:56.762Z,101378.27
2023-10-01T08:31:31.067Z,101368.77
2023-10-01T08:33:44.789Z,101369.71
2023-10-01T08:36:03.487Z,101378.81
2023-10-01T08:38:17.844Z,101381.27
2023-10-01T08:40:31.869Z,101380.59
2023-10-01T08:42:49.951Z,101381.94
2023-10-01T08:45:07.690Z,101381.70
2023-10-01T08:47:33.767Z,101385.16
2023-10-01T08:50:00.006Z,101391.33
2023-10-01T08:52:27.996Z,101395.31
2023-10-01T08:55:01.214Z,101400.89
2023-10-01T08:57:19.436Z,101396.64
2023-10-01T08:59:43.733Z,101397.27
2023-10-01T09:01:59.923Z,101399.61
2023-10-01T09:04:46.907Z,101397.04
2023-10-01T09:07:06.215Z,101400.48
2023-10-01T09:09:28.918Z,101401.23
2023-10-01T09:11:55.846Z,101402.95
2023-10-01T09:14:23.390Z,101403.47
2023-10-01T09:16:45.219Z,101410.09
2023-10-01T09:19:31.169Z,101407.75
2023-10-01T09:21:45.937Z,101410.61
2023-10-01T09:24:14.517Z,101408.89
2023-10-01T09:26:44.673Z,101414.20
2023-10-01T09:29:15.573Z,101415.79
2023-10-01T09:31:28.934Z,101411.44
2023-10-01T09:33:42.240Z,101409.29
2023-10-01T09:36:01.815Z,101408.33
2023-10-01T09:38:29.568Z,101408.14
2023-10-01T09:40:44.309Z,101402.05
2023-10-01T09:42:59.374Z,101400.98
2023-10-01T09:45:37.519Z,101402.08
2023-10-01T09:47:59.255Z,101403.71
2023-10-01T09:50:34.044Z,101401.23
2023-10-01T09:52:52.777Z,101401.26
2023-10-01T09:55:26.944Z,101403.04
2023-10-01T09:57:50.356Z,101404.77
2023-10-01T10:00:23.174Z,101406.27
2023-10-01T10:02:57.350Z,101406.30
2023-10-01T10:05:26.825Z,101407.10
2023-10-01T10:07:43.484Z,101408.34
2023-10-01T10:09:58.717Z,101408.38
2023-10-01T10:12:37.043Z,101414.81
2023-10-01T10:15:00.720Z,101419.05
2023-10-01T10:17:53.621Z,101413.56
2023-10-01T10:20:41.151Z,101403.54
2023-10-01T10:23:18.822Z,101404.89
2023-10-01T10:25:52.125Z,101405.70
2023-10-01T10:28:08.702Z,101405.48
2023-10-01T10:30:24.166Z,101408.59
2023-10-01T10:32:44.734Z,101410.19
2023-10-01T10:35:25.259Z,101413.84
2023-10-01T10:37:55.738Z,101411.07
2023-10-01T10:40:15.670Z,101418.38
2023-10-01T10:42:32.178Z,101419.09
2023-10-01T10:45:26.560Z,101420.45
2023-10-01T10:48:00.883Z,101423.02
2023-10-01T10:50:17.669Z,101419.20
2023-10-01T10:52:37.112Z,101417.58
2023-10-01T10:54:49.722Z,101419.31
2023-10-01T10:57:07.323Z,101420.71
2023-10-01T10:59:19.730Z,101421.94
2023-10-01T11:01:45.738Z,101417.20
2023-10-01T11:03:59.463Z,101415.46
2023-10-01T11:06:25.969Z,101414.72
2023-10-01T11:08:38.755Z,101418.61
2023-10-01T11:10:52.745Z,101418.98
2023-10-01T11:13:05.909Z,101420.13
2023-10-01T11:15:26.075Z,101415.05
2023-10-01T11:17:42.854Z,101415.93
2023-10-01T11:20:00.457Z,101413.40
2023-10-01T11:22:14.032Z,101412.38
2023-10-01T11:24:32.138Z,101414.13
2023-10-01T11:27:24.936Z,101418.02
2023-10-01T11:29:37.599Z,101420.27
2023-10-01T11:31:56.633Z,101427.35
2023-10-01T11:34:24.213Z,101428.30
2023-10-01T11:36:41.723Z,101429.36
2023-10-01T11:38:54.593Z,101429.27
2023-10-01T11:41:11.920Z,101433.84
2023-10-01T11:43:34.959Z,101435.16
2023-10-01T11:45:50.496Z,101437.87
2023-10-01T11:48:19.770Z,101436.09
2023-10-01T11:50:32.189Z,101439.80
2023-10-01T11:52:45.701Z,101446.36
2023-10-01T11:54:58.460Z,101449.52
2023-10-01T11:57:11.473Z,101452.98
2023-10-01T11:59:25.150Z,101452.54
2023-10-01T12:01:49.615Z,101454.65
2023-10-01T12:04:02.770Z,101455.88
2023-10-01T12:06:15.487Z,101457.20
2023-10-01T12:08:37.442Z,101457.01
2023-10-01T12:10:53.579Z,101457.17
2023-10-01T12:13:09.341Z,101453.73
2023-10-01T12:15:45.474Z,101456.36
2023-10-01T12:17:59.703Z,101452.32
2023-10-01T12:20:24.424Z,101457.42
2023-10-01T12:22:37.547Z,101456.10
2023-10-01T12:24:51.639Z,101460.42
2023-10-01T12:27:09.647Z,101456.87
2023-10-01T12:29:22.772Z,101456.34
2023-10-01T12:31:35.968Z,101458.00
2023-10-01T12:33:50.111Z,101460.98
2023-10-01T12:36:05.576Z,101462.28
2023-10-01T12:38:27.322Z,101464.61
2023-10-01T12:40:40.048Z,101462.08
2023-10-01T12:42:54.190Z,101464.34
2023-10-01T12:45:15.810Z,101464.92
2023-10-01T12:47:43.145Z,101463.92
2023-10-01T12:50:01.438Z,101468.67
2023-10-01T12:52:16.591Z,101468.55
2023-10-01T12:54:29.848Z,101476.34
2023-10-01T12:56:50.616Z,101482.70
2023-10-01T12:59:02.999Z,101478.17
2023-10-01T13:01:34.046Z,101479.74
2023-10-01T13:03:47.423Z,101481.35
2023-10-01T13:06:07.568Z,101480.80
2023-10-01T13:08:31.208Z,101479.79
2023-10-01T13:10:53.639Z,101483.88
2023-10-01T13:13:09.616Z,101482.60
2023-10-01T13:15:32.540Z,101482.73
2023-10-01T13:17:47.549Z,101481.81
2023-10-01T13:20:20.501Z,101482.01
2023-10-01T13:22:33.490Z,101485.79
2023-10-01T13:24:56.270Z,101489.86
2023-10-01T13:27:18.745Z,101495.58
2023-10-01T13:29:32.787Z,101495.55
2023-10-01T13:31:45.764Z,101493.70
2023-10-01T13:34:09.005Z,101493.61
2023-10-01T13:36:37.522Z,101493.80
2023-10-01T13:39:15.763Z,101492.73
2023-10-01T13:41:44.824Z,101500.10
2023-10-01T13:44:13.851Z,101503.63
2023-10-01T13:46:43.651Z,101505.41
2023-10-01T13:49:13.207Z,101506.95
2023-10-01T13:51:57.504Z,101508.96
2023-10-01T13:54:27.881Z,101516.33
2023-10-01T13:56:57.092Z,101521.17
2023-10-01T13:59:26.897Z,101523.73
2023-10-01T14:01:56.548Z,101526.63
2023-10-01T14:04:27.153Z,101529.48
2023-10-01T14:06:56.344Z,101531.16
2023-10-01T14:09:12.523Z,101531.27
2023-10-01T14:11:42.176Z,101533.45
2023-10-01T14:13:54.691Z,101533.30
2023-10-01T14:16:19.839Z,101540.55
2023-10-01T14:18:37.972Z,101545.93
2023-10-01T14:20:50.821Z,101546.52
2023-10-01T14:23:03.607Z,101550.30
2023-10-01T14:25:22.804Z,101548.55
2023-10-01T14:27:35.333Z,101553.64
2023-10-01T14:29:51.016Z,101551.33
2023-10-01T14:32:12.822Z,101551.17
2023-10-01T14:34:25.788Z,101554.17
2023-10-01T14:36:41.891Z,101552.71
2023-10-01T14:39:00.870Z,101553.77
2023-10-01T14:41:17.979Z,101557.34
2023-10-01T14:43:30.841Z,101558.17
2023-10-01T14:45:46.834Z,101558.73
2023-10-01T14:48:00.631Z,101558.55
2023-10-01T14:50:17.263Z,101561.00
2023-10-01T14:52:30.053Z,101565.70
2023-10-01T14:54:43.713Z,101566.41
2023-10-01T14:56:59.212Z,101566.70
2023-10-01T14:59:11.812Z,101561.98
2023-10-01T15:01:24.294Z,101564.90
2023-10-01T15:03:37.758Z,101565.97
2023-10-01T15:05:50.513Z,101565.66
2023-10-01T15:08:03.087Z,101565.48
2023-10-01T15:10:18.153Z,101570.66
2023-10-01T15:12:32.429Z,101569.64
2023-10-01T15:15:02.668Z,101572.25
2023-10-01T15:17:26.832Z,101572.33
2023-10-01T15:19:50.135Z,101571.56
2023-10-01T15:22:10.759Z,101572.34
2023-10-01T15:24:24.819Z,101569.42
2023-10-01T15:26:45.690Z,101573.52
2023-10-01T15:28:58.407Z,101572.68
2023-10-01T15:31:15.265Z,101571.90
2023-10-01T15:33:29.721Z,101569.27
2023-10-01T15:35:45.653Z,101572.80
2023-10-01T15:38:01.037Z,101575.98
2023-10-01T15:40:27.604Z,101578.40
2023-10-01T15:42:40.256Z,101578.67
2023-10-01T15:44:55.890Z,101581.18
2023-10-01T15:47:08.435Z,101583.79
2023-10-01T15:49:23.579Z,101583.23
2023-10-01T15:51:36.278Z,101583.63
2023-10-01T15:53:49.128Z,101580.59
2023-10-01T15:56:04.788Z,101581.02
2023-10-01T15:58:17.557Z,101579.64
2023-10-01T16:00:32.051Z,101577.48
2023-10-01T16:02:45.207Z,101566.11
2023-10-01T16:05:01.912Z,101565.92
2023-10-01T16:07:15.188Z,101571.39
2023-10-01T16:09:27.974Z,101575.73
2023-10-01T16:11:40.324Z,101574.77
2023-10-01T16:13:58.104Z,101574.27
2023-10-01T16:16:12.408Z,101577.75
2023-10-01T16:18:26.305Z,101578.15
2023-10-01T16:20:39.388Z,101579.70
2023-10-01T16:22:54.158Z,101578.02
2023-10-01T16:25:12.916Z,101574.27
2023-10-01T16:27:29.731Z,101572.41
2023-10-01T16:29:45.533Z,101572.41
2023-10-01T16:31:59.663Z,101575.39
2023-10-01T16:34:12.181Z,101572.59
2023-10-01T16:36:28.530Z,101576.85
2023-10-01T16:38:41.935Z,101577.79
2023-10-01T16:40:54.375Z,101578.13
2023-10-01T16:43:16.752Z,101573.28
2023-10-01T16:45:31.572Z,101571.38
2023-10-01T16:47:54.442Z,101573.52
2023-10-01T16:50:16.577Z,101574.52
2023-10-01T16:52:29.672Z,101573.73
2023-10-01T16:54:45.115Z,101573.67
2023-10-01T16:57:00.499Z,101578.14
2023-10-01T16:59:14.535Z,101572.17
2023-10-01T17:01:28.874Z,101571.34
2023-10-01T17:03:41.632Z,101572.03
2023-10-01T17:05:54.231Z,101567.77
2023-10-01T17:08:06.775Z,101567.83
2023-10-01T17:10:21.297Z,101567.17
2023-10-01T17:12:33.715Z,101568.70
2023-10-01T17:14:49.244Z,101570.80
2023-10-01T17:17:05.700Z,101571.45
2023-10-01T17:19:31.034Z,101565.52
2023-10-01T17:21:45.472Z,101568.30
2023-10-01T17:23:59.527Z,101565.89
2023-10-01T17:26:12.162Z,101569.41
2023-10-01T17:28:53.676Z,101563.99
2023-10-01T17:31:09.545Z,101560.90
2023-10-01T17:33:22.114Z,101565.64
2023-10-01T17:35:36.966Z,101564.85
2023-10-01T17:37:52.714Z,101561.15
2023-10-01T17:40:19.665Z,101564.27
2023-10-01T17:42:32.132Z,101561.26
2023-10-01T17:44:45.907Z,101560.41
2023-10-01T17:47:01.620Z,101557.38
2023-10-01T17:49:19.185Z,101551.16
2023-10-01T17:51:33.937Z,101552.29
2023-10-01T17:53:53.100Z,101542.55
2023-10-01T17:56:06.567Z,101540.73
2023-10-01T17:58:26.544Z,101537.48
2023-10-01T18:00:41.860Z,101532.70
2023-10-01T18:03:02.987Z,101533.10
2023-10-01T18:05:21.851Z,101528.21
2023-10-01T18:07:36.421Z,101527.77
2023-10-01T18:09:54.124Z,101528.41
2023-10-01T18:12:19.871Z,101527.58
2023-10-01T18:14:35.718Z,101524.10
2023-10-01T18:16:49.547Z,101524.88
2023-10-01T18:19:08.984Z,101513.33
2023-10-01T18:21:22.178Z,101513.33
2023-10-01T18:23:36.118Z,101510.89
2023-10-01T18:25:56.940Z,101511.59
2023-10-01T18:28:11.282Z,101511.26
2023-10-01T18:30:25.264Z,101513.80
2023-10-01T18:32:39.807Z,101510.05
2023-10-01T18:34:53.123Z,101512.37
2023-10-01T18:37:06.974Z,101513.42
2023-10-01T18:39:28.384Z,101509.61
2023-10-01T18:41:43.072Z,101513.39
2023-10-01T18:43:56.076Z,101514.17
2023-10-01T18:46:08.920Z,101511.00
2023-10-01T18:48:21.653Z,101512.56
2023-10-01T18:50:34.042Z,101510.28
2023-10-01T18:52:46.442Z,101509.56
2023-10-01T18:54:59.550Z,101511.39
2023-10-01T18:57:12.160Z,101501.83
2023-10-01T18:59:28.464Z,101500.73
2023-10-01T19:01:41.946Z,101497.70
2023-10-01T19:03:54.334Z,101498.41
2023-10-01T19:06:08.409Z,101486.91
2023-10-01T19:08:23.838Z,101484.64
2023-10-01T19:10:40.669Z,101481.35
2023-10-01T19:12:52.974Z,101480.52
2023-10-01T19:15:18.376Z,101477.05
2023-10-01T19:17:31.324Z,101478.12
2023-10-01T19:19:44.944Z,101474.41
2023-10-01T19:21:57.865Z,101474.34
2023-10-01T19:24:18.171Z,101467.14
2023-10-01T19:26:31.724Z,101465.61
2023-10-01T19:28:45.281Z,101462.12
2023-10-01T19:30:58.074Z,101462.48
2023-10-01T19:33:11.108Z,101459.58
2023-10-01T19:35:25.390Z,101462.44
2023-10-01T19:37:47.157Z,101457.48
2023-10-01T19:40:00.881Z,101456.30
2023-10-01T19:42:17.842Z,101452.41
2023-10-01T19:44:32.116Z,101447.73
2023-10-01T19:46:44.834Z,101441.37
2023-10-01T19:48:58.249Z,101437.89
2023-10-01T19:51:12.048Z,101435.58
2023-10-01T19:53:27.828Z,101433.20
2023-10-01T19:55:40.638Z,101432.83
2023-10-01T19:57:54.753Z,101426.11
2023-10-01T20:00:19.233Z,101419.64
2023-10-01T20:02:37.775Z,101415.77
2023-10-01T20:04:51.325Z,101415.05
2023-10-01T20:07:11.589Z,101411.75
2023-10-01T20:09:35.350Z,101405.83
2023-10-01T20:11:50.119Z,101402.56
2023-10-01T20:14:04.684Z,101397.45
2023-10-01T20:16:17.287Z,101392.78
2023-10-01T20:18:31.456Z,101392.42
2023-10-01T20:20:44.044Z,101393.69
2023-10-01T20:22:58.734Z,101393.16
2023-10-01T20:25:14.434Z,101390.95
2023-10-01T20:27:29.951Z,101388.00
2023-10-01T20:29:42.866Z,101384.88
2023-10-01T20:31:56.669Z,101383.75
2023-10-01T20:34:09.885Z,101379.50
2023-10-01T20:36:27.926Z,101375.97
2023-10-01T20:38:43.074Z,101372.64
2023-10-01T20:40:56.784Z,101371.18
2023-10-01T20:43:10.802Z,101368.02
2023-10-01T20:45:34.722Z,101367.71
2023-10-01T20:47:49.367Z,101366.02
2023-10-01T20:50:01.766Z,101370.08
2023-10-01T20:52:14.504Z,101371.00
2023-10-01T20:54:27.121Z,101371.67
2023-10-01T20:56:41.145Z,101371.85
2023-10-01T20:58:53.949Z,101374.77
2023-10-01T21:01:15.875Z,101374.83
2023-10-01T21:03:29.477Z,101370.44
2023-10-01T21:05:42.324Z,101369.88
2023-10-01T21:07:55.052Z,101365.77
2023-10-01T21:10:20.180Z,101359.81
2023-10-01T21:12:35.212Z,101349.30
2023-10-01T21:14:50.240Z,101345.75
2023-10-01T21:17:07.686Z,101341.39
2023-10-01T21:19:21.055Z,101339.56
2023-10-01T21:21:34.280Z,101339.50
2023-10-01T21:23:48.748Z,101337.36
2023-10-01T21:26:01.406Z,101341.11
2023-10-01T21:28:15.242Z,101339.41
2023-10-01T21:30:32.708Z,101335.63
2023-10-01T21:32:47.171Z,101330.46
2023-10-01T21:34:59.918Z,101325.52
2023-10-01T21:37:18.631Z,101321.33
2023-10-01T21:39:34.845Z,101320.11
2023-10-01T21:41:51.940Z,101318.45
2023-10-01T21:44:04.861Z,101320.41
2023-10-01T21:46:27.419Z,101324.01
2023-10-01T21:48:40.475Z,101326.42
2023-10-01T21:51:00.612Z,101323.48
2023-10-01T21:53:32.308Z,101325.59
2023-10-01T21:55:45.220Z,101317.48
2023-10-01T21:58:03.790Z,101318.52
2023-10-01T22:00:37.190Z,101323.77
2023-10-01T22:03:06.136Z,101317.98
2023-10-01T22:05:19.192Z,101316.85
2023-10-01T22:07:32.118Z,101319.02
2023-10-01T22:09:46.107Z,101320.45
2023-10-01T22:12:00.446Z,101319.59
2023-10-01T22:14:17.657Z,101318.92
2023-10-01T22:16:36.059Z,101313.96
2023-10-01T22:18:51.518Z,101315.35
2023-10-01T22:21:08.531Z,101316.05
2023-10-01T22:23:23.277Z,101318.85
2023-10-01T22:25:36.396Z,101318.64
2023-10-01T22:27:49.832Z,101319.58
2023-10-01T22:30:03.452Z,101319.43
2023-10-01T22:32:16.060Z,101319.77
2023-10-01T22:34:30.947Z,101312.21
2023-10-01T22:36:48.966Z,101312.25
2023-10-01T22:39:02.426Z,101312.29
2023-10-01T22:41:17.846Z,101311.84
2023-10-01T22:43:32.330Z,101311.50
2023-10-01T22:45:51.461Z,101309.83
2023-10-01T22:48:19.752Z,101310.18
2023-10-01T22:50:33.018Z,101313.20
2023-10-01T22:52:48.469Z,101315.09
2023-10-01T22:55:01.224Z,101316.64
2023-10-01T22:57:14.968Z,101313.41
2023-10-01T22:59:29.381Z,101311.85
2023-10-01T23:01:42.434Z,101311.50
2023-10-01T23:03:54.755Z,101309.84
2023-10-01T23:06:08.046Z,101311.86
2023-10-01T23:08:20.973Z,101308.88
2023-10-01T23:10:33.716Z,101309.55
2023-10-01T23:12:46.281Z,101312.92
2023-10-01T23:15:00.786Z,101308.98
2023-10-01T23:17:33.696Z,101312.43
2023-10-01T23:19:55.426Z,101308.89
2023-10-01T23:22:12.779Z,101304.08
2023-10-01T23:24:43.311Z,101300.47
2023-10-01T23:26:59.167Z,101302.36
2023-10-01T23:29:21.666Z,101303.24
2023-10-01T23:31:35.832Z,101306.28
2023-10-01T23:33:52.843Z,101307.47
2023-10-01T23:36:11.433Z,101308.37
2023-10-01T23:38:31.577Z,101301.88
2023-10-01T23:40:44.861Z,101303.89
2023-10-01T23:42:57.451Z,101303.98
2023-10-01T23:45:10.796Z,101306.96
2023-10-01T23:47:30.712Z,101308.11
2023-10-01T23:49:44.397Z,101306.13
2023-10-01T23:52:04.503Z,101304.15
2023-10-01T23:54:22.419Z,101302.14
2023-10-01T23:56:35.234Z,101300.88
2023-10-01T23:58:48.783Z,101308.66
